createdAt,value
2022-09-28T00:01:50.242Z,5.63
2022-09-28T00:04:55.647Z,4.40
2022-09-28T00:08:02.067Z,11.80
2022-09-28T00:11:12.846Z,4.65
2022-09-28T00:14:18.268Z,7.47
2022-09-28T00:17:24.263Z,9.60
2022-09-28T00:20:30.188Z,5.75
2022-09-28T00:23:58.584Z,5.93
2022-09-28T00:27:04.617Z,4.68
2022-09-28T00:30:10.694Z,6.43
2022-09-28T00:33:16.218Z,4.65
2022-09-28T00:36:21.987Z,4.38
2022-09-28T00:39:28.769Z,4.65
2022-09-28T00:42:34.608Z,4.30
2022-09-28T00:45:40.350Z,4.47
2022-09-28T00:49:03.559Z,4.97
2022-09-28T00:52:16.156Z,4.30
2022-09-28T00:55:29.603Z,5.38
2022-09-28T00:58:55.027Z,6.00
2022-09-28T01:02:03.220Z,4.40
2022-09-28T01:05:11.049Z,12.60
2022-09-28T01:08:18.156Z,5.13
2022-09-28T01:11:25.697Z,8.07
2022-09-28T01:14:31.935Z,5.82
2022-09-28T01:18:03.649Z,6.50
2022-09-28T01:21:24.396Z,6.72
2022-09-28T01:24:40.716Z,4.88
2022-09-28T01:27:57.983Z,5.38
2022-09-28T01:31:15.794Z,5.93
2022-09-28T01:34:30.336Z,4.90
2022-09-28T01:37:47.860Z,4.28
2022-09-28T01:40:55.685Z,7.45
2022-09-28T01:44:04.689Z,3.45
2022-09-28T01:47:14.397Z,3.67
2022-09-28T01:50:25.393Z,5.43
2022-09-28T01:53:43.700Z,3.83
2022-09-28T01:57:07.769Z,5.90
2022-09-28T02:00:15.686Z,3.60
2022-09-28T02:03:32.971Z,3.33
2022-09-28T02:06:53.450Z,3.47
2022-09-28T02:10:06.233Z,4.45
2022-09-28T02:13:19.063Z,10.75
2022-09-28T02:16:31.562Z,4.28
2022-09-28T02:19:39.739Z,6.20
2022-09-28T02:22:57.084Z,6.70
2022-09-28T02:26:08.529Z,4.95
2022-09-28T02:29:15.506Z,3.80
2022-09-28T02:32:22.915Z,3.47
2022-09-28T02:35:28.827Z,2.70
2022-09-28T02:38:38.618Z,3.45
2022-09-28T02:42:03.968Z,4.68
2022-09-28T02:45:21.702Z,5.15
2022-09-28T02:48:55.718Z,3.05
2022-09-28T02:52:39.729Z,8.32
2022-09-28T02:56:11.183Z,5.32
2022-09-28T02:59:19.597Z,3.97
2022-09-28T03:02:31.725Z,6.95
2022-09-28T03:06:02.284Z,4.43
2022-09-28T03:09:34.602Z,4.22
2022-09-28T03:12:41.962Z,5.47
2022-09-28T03:15:53.304Z,5.88
2022-09-28T03:18:59.646Z,6.32
2022-09-28T03:22:06.008Z,5.85
2022-09-28T03:25:12.156Z,8.32
2022-09-28T03:28:18.650Z,6.63
2022-09-28T03:31:24.192Z,6.40
2022-09-28T03:34:30.499Z,5.13
2022-09-28T03:37:36.962Z,4.70
2022-09-28T03:40:43.846Z,4.35
2022-09-28T03:43:49.871Z,3.92
2022-09-28T03:46:56.812Z,14.82
2022-09-28T03:50:02.724Z,4.15
2022-09-28T03:53:08.474Z,5.15
2022-09-28T03:56:16.325Z,4.57
2022-09-28T03:59:22.192Z,2.33
2022-09-28T04:02:28.029Z,3.13
2022-09-28T04:05:35.500Z,4.60
2022-09-28T04:08:41.661Z,3.83
2022-09-28T04:12:03.395Z,3.28
2022-09-28T04:15:11.747Z,4.57
2022-09-28T04:18:16.960Z,5.38
2022-09-28T04:21:42.712Z,3.15
2022-09-28T04:24:51.980Z,4.30
2022-09-28T04:28:16.107Z,2.47
2022-09-28T04:31:23.601Z,3.45
2022-09-28T04:34:33.123Z,3.92
2022-09-28T04:37:40.744Z,2.63
2022-09-28T04:40:50.136Z,3.65
2022-09-28T04:43:55.920Z,3.10
2022-09-28T04:47:05.280Z,1.98
2022-09-28T04:50:11.300Z,3.50
2022-09-28T04:53:37.374Z,2.58
2022-09-28T04:56:43.667Z,3.00
2022-09-28T04:59:49.372Z,3.28
2022-09-28T05:02:56.684Z,9.40
2022-09-28T05:06:21.895Z,4.90
2022-09-28T05:09:37.691Z,2.70
2022-09-28T05:12:44.099Z,2.83
2022-09-28T05:15:57.479Z,1.88
2022-09-28T05:19:11.060Z,2.58
2022-09-28T05:22:16.750Z,4.05
2022-09-28T05:25:25.300Z,2.10
2022-09-28T05:28:45.067Z,2.08
2022-09-28T05:32:13.333Z,1.67
2022-09-28T05:35:21.609Z,1.90
2022-09-28T05:38:29.172Z,1.50
2022-09-28T05:41:34.750Z,3.95
2022-09-28T05:44:40.805Z,2.35
2022-09-28T05:47:46.981Z,4.57
2022-09-28T05:50:58.905Z,2.95
2022-09-28T05:54:06.369Z,1.58
2022-09-28T05:57:15.492Z,1.58
2022-09-28T06:00:21.087Z,2.30
2022-09-28T06:03:32.115Z,3.23
2022-09-28T06:06:39.211Z,2.90
2022-09-28T06:09:44.793Z,3.15
2022-09-28T06:12:57.135Z,2.70
2022-09-28T06:16:05.194Z,5.75
2022-09-28T06:19:12.815Z,4.03
2022-09-28T06:22:37.174Z,4.15
2022-09-28T06:25:46.207Z,5.65
2022-09-28T06:28:51.732Z,3.88
2022-09-28T06:31:57.352Z,6.70
2022-09-28T06:35:04.004Z,2.42
2022-09-28T06:38:09.560Z,3.10
2022-09-28T06:41:16.501Z,4.85
2022-09-28T06:44:23.341Z,4.45
2022-09-28T06:47:28.841Z,3.28
2022-09-28T06:50:47.997Z,7.60
2022-09-28T06:54:18.508Z,6.55
2022-09-28T06:58:05.152Z,3.38
2022-09-28T07:01:12.575Z,1.75
2022-09-28T07:04:43.214Z,2.35
2022-09-28T07:08:29.020Z,1.83
2022-09-28T07:11:53.913Z,1.67
2022-09-28T07:18:13.085Z,3.55
2022-09-28T07:21:29.067Z,5.85
2022-09-28T07:24:38.708Z,6.45
2022-09-28T07:28:07.570Z,8.40
2022-09-28T07:31:33.994Z,6.78
2022-09-28T07:34:59.092Z,6.50
2022-09-28T07:38:24.063Z,5.78
2022-09-28T07:41:32.840Z,13.60
2022-09-28T07:44:41.549Z,5.47
2022-09-28T07:47:47.963Z,3.45
2022-09-28T07:51:12.673Z,5.57
2022-09-28T07:54:20.868Z,2.60
2022-09-28T07:57:47.290Z,1.88
2022-09-28T08:01:05.924Z,4.32
2022-09-28T08:04:12.930Z,4.05
2022-09-28T08:07:24.111Z,3.10
2022-09-28T08:10:38.663Z,3.70
2022-09-28T08:14:04.163Z,1.30
2022-09-28T08:17:28.480Z,3.70
2022-09-28T08:20:55.840Z,12.50
2022-09-28T08:24:01.864Z,2.08
2022-09-28T08:27:07.474Z,3.40
2022-09-28T08:30:13.920Z,2.35
2022-09-28T08:37:26.579Z,1.92
2022-09-28T08:40:58.967Z,4.28
2022-09-28T08:44:26.147Z,7.00
2022-09-28T08:48:15.431Z,4.63
2022-09-28T08:55:39.622Z,3.63
2022-09-28T08:58:54.826Z,3.00
2022-09-28T09:02:06.309Z,0.90
2022-09-28T09:05:17.559Z,1.17
2022-09-28T09:09:01.355Z,2.10
2022-09-28T09:12:13.865Z,1.20
2022-09-28T09:15:39.305Z,2.38
2022-09-28T09:19:11.369Z,2.88
2022-09-28T09:22:37.797Z,1.85
2022-09-28T09:25:50.634Z,3.83
2022-09-28T09:29:03.537Z,2.45
2022-09-28T09:32:56.642Z,2.20
2022-09-28T09:36:34.810Z,1.55
2022-09-28T09:40:21.080Z,1.35
2022-09-28T09:44:12.169Z,2.40
2022-09-28T09:47:38.980Z,3.60
2022-09-28T09:51:00.931Z,3.05
2022-09-28T09:54:32.485Z,1.88
2022-09-28T09:58:03.483Z,3.88
2022-09-28T10:01:20.123Z,6.70
2022-09-28T10:04:49.544Z,19.30
2022-09-28T10:08:03.199Z,9.93
2022-09-28T10:11:14.201Z,8.77
2022-09-28T10:14:25.750Z,3.70
2022-09-28T10:17:39.643Z,1.50
2022-09-28T10:21:16.355Z,2.88
2022-09-28T10:24:51.959Z,4.47
2022-09-28T10:27:59.259Z,3.10
2022-09-28T10:31:42.375Z,2.25
2022-09-28T10:35:22.512Z,3.60
2022-09-28T10:38:37.085Z,4.85
2022-09-28T10:41:52.338Z,6.15
2022-09-28T10:45:16.225Z,6.28
2022-09-28T10:48:23.228Z,6.90
2022-09-28T10:51:45.689Z,6.30
2022-09-28T10:55:00.879Z,6.10
2022-09-28T10:58:26.092Z,3.03
2022-09-28T11:01:34.913Z,2.92
2022-09-28T11:04:50.497Z,3.78
2022-09-28T11:08:00.202Z,3.25
2022-09-28T11:11:20.400Z,6.80
2022-09-28T11:14:42.777Z,2.55
2022-09-28T11:18:21.001Z,8.10
2022-09-28T11:21:40.336Z,3.38
2022-09-28T11:24:46.144Z,8.35
2022-09-28T11:27:51.195Z,6.22
2022-09-28T11:30:57.758Z,5.95
2022-09-28T11:34:31.055Z,5.90
2022-09-28T11:38:22.846Z,3.08
2022-09-28T11:42:03.967Z,6.65
2022-09-28T11:45:32.729Z,5.82
2022-09-28T11:48:58.166Z,2.88
2022-09-28T11:52:12.692Z,7.47
2022-09-28T11:55:57.603Z,8.88
2022-09-28T11:59:12.273Z,3.20
2022-09-28T12:02:34.137Z,7.63
2022-09-28T12:05:52.010Z,4.70
2022-09-28T12:09:07.201Z,6.13
2022-09-28T12:12:33.720Z,4.30
2022-09-28T12:16:27.302Z,12.88
2022-09-28T12:19:34.577Z,3.08
2022-09-28T12:22:46.324Z,7.18
2022-09-28T12:26:05.325Z,11.45
2022-09-28T12:29:42.494Z,3.40
2022-09-28T12:33:04.760Z,4.38
2022-09-28T12:36:17.864Z,6.32
2022-09-28T12:39:56.401Z,4.13
2022-09-28T12:43:29.225Z,7.60
2022-09-28T12:47:10.196Z,7.68
2022-09-28T12:53:55.098Z,4.95
2022-09-28T12:57:31.599Z,4.53
2022-09-28T13:01:11.059Z,9.20
2022-09-28T13:04:40.310Z,5.20
2022-09-28T13:07:57.913Z,6.38
2022-09-28T13:11:22.901Z,6.95
2022-09-28T13:14:38.314Z,5.72
2022-09-28T13:17:52.577Z,6.00
2022-09-28T13:21:08.845Z,6.65
2022-09-28T13:24:32.630Z,8.52
2022-09-28T13:27:46.397Z,5.13
2022-09-28T13:30:54.381Z,5.30
2022-09-28T13:34:03.573Z,5.95
2022-09-28T13:37:17.099Z,15.60
2022-09-28T13:41:00.769Z,6.25
2022-09-28T13:44:20.461Z,7.47
2022-09-28T13:47:55.675Z,10.77
2022-09-28T13:51:25.210Z,9.90
2022-09-28T13:55:03.233Z,6.10
2022-09-28T13:58:24.861Z,10.70
2022-09-28T14:01:40.635Z,7.15
2022-09-28T14:05:01.265Z,6.80
2022-09-28T14:08:09.388Z,3.97
2022-09-28T14:11:35.098Z,4.32
2022-09-28T14:14:52.377Z,6.20
2022-09-28T14:18:16.640Z,9.98
2022-09-28T14:21:21.837Z,9.30
2022-09-28T14:24:51.251Z,7.40
2022-09-28T14:28:01.352Z,4.47
2022-09-28T14:31:24.829Z,5.63
2022-09-28T14:34:39.111Z,5.53
2022-09-28T14:38:07.746Z,6.90
2022-09-28T14:41:31.814Z,6.15
2022-09-28T14:45:07.106Z,12.20
2022-09-28T14:48:19.552Z,7.68
2022-09-28T14:51:24.977Z,7.80
2022-09-28T14:54:56.811Z,9.88
2022-09-28T14:58:04.986Z,8.75
2022-09-28T15:01:20.736Z,5.60
2022-09-28T15:04:29.756Z,4.53
2022-09-28T15:07:49.785Z,8.35
2022-09-28T15:10:58.765Z,4.55
2022-09-28T15:14:08.669Z,6.53
2022-09-28T15:17:22.338Z,6.88
2022-09-28T15:20:32.676Z,11.48
2022-09-28T15:23:40.941Z,4.40
2022-09-28T15:26:48.546Z,4.18
2022-09-28T15:30:23.415Z,5.53
2022-09-28T15:33:50.502Z,6.05
2022-09-28T15:36:56.873Z,5.75
2022-09-28T15:40:03.404Z,5.00
2022-09-28T15:43:27.674Z,3.92
2022-09-28T15:46:42.129Z,3.90
2022-09-28T15:49:59.959Z,4.40
2022-09-28T15:53:06.191Z,2.92
2022-09-28T15:56:13.300Z,8.63
2022-09-28T15:59:31.193Z,3.33
2022-09-28T16:02:36.658Z,8.32
2022-09-28T16:05:47.230Z,6.10
2022-09-28T16:08:53.017Z,2.73
2022-09-28T16:11:59.622Z,4.85
2022-09-28T16:15:28.340Z,3.88
2022-09-28T16:18:40.932Z,4.07
2022-09-28T16:21:48.703Z,3.10
2022-09-28T16:24:57.672Z,4.93
2022-09-28T16:28:05.182Z,7.18
2022-09-28T16:31:13.869Z,3.55
2022-09-28T16:34:24.339Z,8.35
2022-09-28T16:37:32.496Z,2.67
2022-09-28T16:40:49.778Z,11.35
2022-09-28T16:43:59.987Z,3.92
2022-09-28T16:47:06.874Z,8.52
2022-09-28T16:50:15.586Z,4.88
2022-09-28T16:53:39.844Z,3.15
2022-09-28T16:56:45.099Z,5.75
2022-09-28T16:59:50.500Z,3.60
2022-09-28T17:02:56.431Z,9.02
2022-09-28T17:06:08.811Z,5.35
2022-09-28T17:09:14.105Z,6.25
2022-09-28T17:12:25.065Z,8.30
2022-09-28T17:15:30.405Z,5.82
2022-09-28T17:18:39.529Z,5.50
2022-09-28T17:21:45.777Z,5.57
2022-09-28T17:24:51.121Z,7.90
2022-09-28T17:27:58.847Z,4.57
2022-09-28T17:31:04.792Z,6.10
2022-09-28T17:34:13.053Z,4.15
2022-09-28T17:37:18.835Z,7.18
2022-09-28T17:40:28.635Z,5.53
2022-09-28T17:43:35.229Z,8.03
2022-09-28T17:46:49.146Z,5.47
2022-09-28T17:49:54.928Z,4.15
2022-09-28T17:53:06.592Z,5.80
2022-09-28T17:56:14.436Z,3.80
2022-09-28T17:59:21.038Z,6.93
2022-09-28T18:02:26.648Z,5.20
2022-09-28T18:05:34.950Z,6.10
2022-09-28T18:08:46.052Z,6.35
2022-09-28T18:12:04.308Z,5.60
2022-09-28T18:15:16.103Z,9.38
2022-09-28T18:18:30.280Z,4.22
2022-09-28T18:21:41.484Z,3.70
2022-09-28T18:24:52.605Z,6.80
2022-09-28T18:28:08.134Z,5.60
2022-09-28T18:31:23.596Z,4.20
2022-09-28T18:35:22.937Z,7.05
2022-09-28T18:43:20.864Z,6.90
2022-09-28T18:46:53.273Z,7.50
2022-09-28T18:50:17.899Z,6.90
2022-09-28T18:53:36.554Z,4.13
2022-09-28T18:56:50.056Z,7.82
2022-09-28T19:10:13.026Z,3.42
2022-09-28T19:13:59.886Z,4.82
2022-09-28T19:17:28.969Z,3.55
2022-09-28T19:35:52.392Z,6.35
2022-09-28T19:39:40.549Z,6.60
2022-09-28T19:43:33.767Z,2.97
2022-09-28T19:47:27.743Z,4.32
2022-09-28T19:51:43.744Z,4.30
2022-09-28T19:55:16.544Z,3.67
2022-09-28T19:58:54.518Z,8.18
2022-09-28T20:02:37.596Z,10.90
2022-09-28T20:06:00.315Z,8.75
2022-09-28T20:09:18.220Z,4.28
2022-09-28T20:12:34.821Z,5.68
2022-09-28T20:15:48.963Z,4.25
2022-09-28T20:19:08.782Z,4.60
2022-09-28T20:22:22.017Z,10.02
2022-09-28T20:25:38.691Z,5.45
2022-09-28T20:28:50.350Z,4.00
2022-09-28T20:32:04.422Z,8.95
2022-09-28T20:35:13.045Z,3.22
2022-09-28T20:38:22.082Z,8.55
2022-09-28T20:41:38.088Z,12.70
2022-09-28T20:44:47.402Z,8.90
2022-09-28T20:47:53.265Z,2.75
2022-09-28T20:51:01.114Z,5.57
2022-09-28T20:54:07.028Z,5.25
2022-09-28T20:57:18.788Z,4.90
2022-09-28T21:00:24.088Z,4.03
2022-09-28T21:03:30.185Z,7.50
2022-09-28T21:06:38.431Z,7.03
2022-09-28T21:09:43.999Z,5.55
2022-09-28T21:12:53.383Z,36.92
2022-09-28T21:16:02.484Z,56.10
2022-09-28T21:19:08.633Z,97.28
2022-09-28T21:22:13.950Z,104.97
2022-09-28T21:25:19.431Z,100.20
2022-09-28T21:28:25.023Z,44.63
2022-09-28T21:31:43.252Z,12.07
2022-09-28T21:34:48.468Z,17.30
2022-09-28T21:37:54.493Z,17.50
2022-09-28T21:41:00.775Z,23.08
2022-09-28T21:44:06.819Z,8.88
2022-09-28T21:47:12.222Z,11.07
2022-09-28T21:50:18.141Z,9.02
2022-09-28T21:53:25.785Z,19.13
2022-09-28T21:56:31.221Z,10.85
2022-09-28T21:59:37.348Z,8.68
2022-09-28T22:02:44.363Z,8.75
2022-09-28T22:05:52.777Z,12.75
2022-09-28T22:08:58.580Z,11.75
2022-09-28T22:12:04.450Z,10.27
2022-09-28T22:15:10.667Z,12.15
2022-09-28T22:18:16.583Z,11.25
2022-09-28T22:21:32.084Z,9.82
2022-09-28T22:24:38.087Z,24.83
2022-09-28T22:27:46.286Z,19.10
2022-09-28T22:30:51.947Z,26.08
2022-09-28T22:33:58.688Z,17.85
2022-09-28T22:37:04.930Z,9.57
2022-09-28T22:40:13.000Z,14.13
2022-09-28T22:43:19.507Z,21.88
2022-09-28T22:46:28.050Z,15.05
2022-09-28T22:49:33.708Z,14.30
2022-09-28T22:52:39.268Z,11.70
2022-09-28T22:55:45.630Z,12.52
2022-09-28T22:58:51.185Z,12.02
2022-09-28T23:01:57.079Z,10.93
2022-09-28T23:05:02.527Z,12.50
2022-09-28T23:08:08.107Z,15.48
2022-09-28T23:11:14.559Z,27.23
2022-09-28T23:14:20.178Z,25.73
2022-09-28T23:17:25.934Z,29.30
2022-09-28T23:20:31.728Z,24.45
2022-09-28T23:23:37.520Z,29.73
2022-09-28T23:26:43.187Z,41.92
2022-09-28T23:29:49.540Z,33.53
2022-09-28T23:32:55.056Z,34.70
2022-09-28T23:36:01.818Z,22.73
2022-09-28T23:39:07.305Z,22.60
2022-09-28T23:42:13.032Z,23.92
2022-09-28T23:45:18.593Z,23.23
2022-09-28T23:48:24.451Z,24.15
2022-09-28T23:51:30.112Z,15.98
2022-09-28T23:54:35.694Z,22.63
2022-09-28T23:57:44.074Z,30.40
